IDEVL LICK-LISD

Flight info

Callsign IDEVL
Flight time N/A
Altitude 6500
Route VFR NO PLAN
Aircraft PA24/L-SDY/C

Departure

Time 2026-04-09 16:26
Airport Scalea Airport (LICK)

Arrival

Time N/A
Airport LISD
Time Latitude Longitude Altitude Speed Heading
2026-04-09 16:17 39.77745 15.82154 48 ft 0 kts 354°
2026-04-09 16:20 39.77744 15.82154 48 ft 0 kts 354°
2026-04-09 16:24 39.77749 15.82169 48 ft 6 kts 130°
2026-04-09 16:24 39.77706 15.82204 47 ft 7 kts 145°
2026-04-09 16:25 39.77683 15.82217 47 ft 0 kts 172°
2026-04-09 16:25 39.77678 15.82218 47 ft 6 kts 172°
2026-04-09 16:25 39.77629 15.82120 45 ft 29 kts 268°
2026-04-09 16:25 39.77612 15.81558 123 ft 79 kts 267°
2026-04-09 16:26 39.77587 15.80822 501 ft 80 kts 277°
2026-04-09 16:26 39.77844 15.80179 857 ft 86 kts 313°
2026-04-09 16:26 39.78302 15.79587 1180 ft 93 kts 311°
2026-04-09 16:26 39.78693 15.78969 1598 ft 89 kts 305°
2026-04-09 16:27 39.79071 15.78307 1955 ft 90 kts 303°
2026-04-09 16:27 39.79416 15.77643 2318 ft 89 kts 302°
2026-04-09 16:27 39.79752 15.76960 2617 ft 95 kts 300°
2026-04-09 16:27 39.80151 15.76080 2583 ft 127 kts 301°
2026-04-09 16:28 39.80665 15.75010 2425 ft 151 kts 302°
2026-04-09 16:28 39.81259 15.73797 2359 ft 155 kts 302°
2026-04-09 16:28 39.81743 15.72695 2549 ft 151 kts 298°
2026-04-09 16:28 39.82239 15.71497 2632 ft 151 kts 298°
2026-04-09 16:29 39.82786 15.70229 2392 ft 166 kts 301°
2026-04-09 16:29 39.83363 15.69161 3047 ft 121 kts 307°
2026-04-09 16:29 39.83889 15.68303 3359 ft 120 kts 307°
2026-04-09 16:29 39.84432 15.67458 3590 ft 124 kts 309°
2026-04-09 16:30 39.85032 15.66537 3564 ft 142 kts 308°
2026-04-09 16:30 39.85672 15.65492 3557 ft 152 kts 307°
2026-04-09 16:30 39.86306 15.64369 3541 ft 156 kts 304°
2026-04-09 16:30 39.86895 15.63205 3539 ft 153 kts 302°
2026-04-09 16:31 39.87454 15.62020 3542 ft 154 kts 301°
2026-04-09 16:31 39.88006 15.60820 3544 ft 155 kts 301°
2026-04-09 16:31 39.88562 15.59614 3542 ft 156 kts 301°
2026-04-09 16:31 39.89132 15.58416 3542 ft 156 kts 302°
2026-04-09 16:32 39.89722 15.57216 3509 ft 157 kts 302°
2026-04-09 16:32 39.90321 15.56036 3528 ft 155 kts 303°
2026-04-09 16:32 39.90925 15.54873 3539 ft 155 kts 303°
2026-04-09 16:32 39.91532 15.53710 3540 ft 155 kts 304°
2026-04-09 16:33 39.92139 15.52547 3543 ft 156 kts 304°
2026-04-09 16:33 39.92747 15.51381 3544 ft 156 kts 303°
2026-04-09 16:33 39.93351 15.50209 3544 ft 156 kts 303°
2026-04-09 16:33 39.93950 15.49031 3534 ft 156 kts 303°
2026-04-09 16:34 39.94546 15.47855 3537 ft 155 kts 303°
2026-04-09 16:34 39.95134 15.46678 3537 ft 155 kts 302°
2026-04-09 16:34 39.95724 15.45494 3537 ft 156 kts 302°
2026-04-09 16:34 39.96314 15.44313 3529 ft 156 kts 303°
2026-04-09 16:35 39.96906 15.43131 3536 ft 156 kts 303°
2026-04-09 16:35 39.97502 15.41952 3531 ft 156 kts 303°
2026-04-09 16:35 39.98100 15.40776 3536 ft 156 kts 303°
2026-04-09 16:35 39.98700 15.39601 3534 ft 156 kts 303°
2026-04-09 16:36 39.99300 15.38425 3535 ft 156 kts 303°
2026-04-09 16:36 39.99900 15.37245 3533 ft 156 kts 303°
2026-04-09 16:36 40.00500 15.36066 3527 ft 156 kts 303°
2026-04-09 16:36 40.01109 15.34892 3529 ft 156 kts 303°
2026-04-09 16:37 40.01704 15.33707 3531 ft 156 kts 302°
2026-04-09 16:37 40.02298 15.32510 3527 ft 158 kts 302°
2026-04-09 16:37 40.02902 15.31323 3530 ft 157 kts 303°
2026-04-09 16:37 40.03486 15.30130 3532 ft 156 kts 301°
2026-04-09 16:38 40.04057 15.28925 3538 ft 156 kts 302°
2026-04-09 16:38 40.04655 15.27748 3528 ft 155 kts 304°
2026-04-09 16:38 40.05257 15.26585 3530 ft 155 kts 303°
2026-04-09 16:38 40.05843 15.25409 3529 ft 154 kts 302°
2026-04-09 16:39 40.06428 15.24236 3528 ft 154 kts 303°
2026-04-09 16:39 40.07016 15.23068 3528 ft 154 kts 303°
2026-04-09 16:39 40.07608 15.21903 3529 ft 154 kts 303°
2026-04-09 16:39 40.08202 15.20739 3523 ft 154 kts 303°
2026-04-09 16:40 40.08798 15.19577 3528 ft 154 kts 303°
2026-04-09 16:40 40.09389 15.18409 3530 ft 154 kts 303°
2026-04-09 16:40 40.09975 15.17232 3529 ft 154 kts 302°
2026-04-09 16:40 40.10555 15.16052 3526 ft 154 kts 302°
2026-04-09 16:41 40.11139 15.14875 3528 ft 154 kts 303°
2026-04-09 16:41 40.11726 15.13701 3528 ft 154 kts 303°
2026-04-09 16:41 40.12308 15.12541 3528 ft 154 kts 303°
2026-04-09 16:41 40.12899 15.11371 3525 ft 154 kts 303°
2026-04-09 16:42 40.13492 15.10204 3527 ft 154 kts 303°
2026-04-09 16:42 40.14091 15.09035 3530 ft 156 kts 303°
2026-04-09 16:42 40.14690 15.07847 3527 ft 157 kts 303°
2026-04-09 16:42 40.15284 15.06654 3522 ft 156 kts 302°
2026-04-09 16:43 40.15873 15.05460 3522 ft 156 kts 302°
2026-04-09 16:43 40.16460 15.04263 3522 ft 156 kts 302°
2026-04-09 16:43 40.17047 15.03069 3522 ft 157 kts 302°
2026-04-09 16:43 40.17639 15.01873 3519 ft 157 kts 302°
2026-04-09 16:44 40.18233 15.00679 3522 ft 157 kts 302°
2026-04-09 16:44 40.18830 14.99489 3524 ft 157 kts 303°
2026-04-09 16:44 40.19430 14.98301 3522 ft 157 kts 303°
2026-04-09 16:44 40.20028 14.97116 3523 ft 156 kts 303°
2026-04-09 16:45 40.20627 14.95929 3524 ft 156 kts 302°
2026-04-09 16:45 40.21220 14.94738 3525 ft 156 kts 302°
2026-04-09 16:45 40.21812 14.93544 3519 ft 156 kts 302°
2026-04-09 16:45 40.22404 14.92350 3520 ft 155 kts 302°
2026-04-09 16:46 40.22992 14.91177 3522 ft 153 kts 303°
2026-04-09 16:46 40.23566 14.90002 3529 ft 153 kts 302°
2026-04-09 16:46 40.24138 14.88828 3531 ft 153 kts 302°
2026-04-09 16:46 40.24714 14.87659 3517 ft 152 kts 303°
2026-04-09 16:47 40.25292 14.86496 3518 ft 152 kts 303°
2026-04-09 16:47 40.25872 14.85338 3519 ft 152 kts 303°
2026-04-09 16:47 40.26454 14.84181 3518 ft 152 kts 303°
2026-04-09 16:47 40.27035 14.83022 3520 ft 152 kts 303°
2026-04-09 16:48 40.27618 14.81859 3521 ft 153 kts 303°
2026-04-09 16:48 40.28004 14.81088 3522 ft 153 kts 303°
2026-04-09 16:48 40.28585 14.79920 3522 ft 153 kts 303°
2026-04-09 16:48 40.29163 14.78747 3522 ft 153 kts 302°
2026-04-09 16:49 40.29740 14.77576 3521 ft 153 kts 302°
2026-04-09 16:49 40.30318 14.76406 3521 ft 153 kts 302°
2026-04-09 16:49 40.30897 14.75235 3521 ft 153 kts 302°
2026-04-09 16:49 40.31474 14.74064 3517 ft 153 kts 302°
2026-04-09 16:50 40.32049 14.72897 3519 ft 152 kts 302°
2026-04-09 16:50 40.32623 14.71731 3519 ft 152 kts 302°
2026-04-09 16:50 40.33199 14.70562 3519 ft 153 kts 303°
2026-04-09 16:50 40.33777 14.69391 3519 ft 153 kts 303°
2026-04-09 16:51 40.34357 14.68222 3520 ft 153 kts 303°
2026-04-09 16:51 40.34938 14.67053 3518 ft 153 kts 303°
2026-04-09 16:51 40.35514 14.65899 3520 ft 153 kts 303°
2026-04-09 16:51 40.36098 14.64732 3520 ft 153 kts 303°
2026-04-09 16:52 40.36676 14.63563 3517 ft 153 kts 302°
2026-04-09 16:52 40.37250 14.62389 3520 ft 153 kts 302°
2026-04-09 16:52 40.37821 14.61215 3519 ft 152 kts 302°
2026-04-09 16:52 40.38381 14.60036 3519 ft 153 kts 302°
2026-04-09 16:53 40.38955 14.58866 3517 ft 153 kts 303°
2026-04-09 16:53 40.39537 14.57699 3518 ft 153 kts 303°
2026-04-09 16:53 40.40122 14.56537 3517 ft 153 kts 303°
2026-04-09 16:53 40.40707 14.55372 3518 ft 153 kts 303°
2026-04-09 16:54 40.41288 14.54204 3517 ft 153 kts 302°
2026-04-09 16:54 40.41864 14.53034 3517 ft 152 kts 302°
2026-04-09 16:54 40.42434 14.51862 3518 ft 152 kts 302°
2026-04-09 16:54 40.43005 14.50690 3520 ft 153 kts 302°
2026-04-09 16:55 40.43589 14.49515 3514 ft 154 kts 302°
2026-04-09 16:55 40.44170 14.48335 3512 ft 154 kts 302°
2026-04-09 16:55 40.44744 14.47151 3511 ft 154 kts 302°
2026-04-09 16:55 40.45316 14.45965 3511 ft 154 kts 302°
2026-04-09 16:56 40.45888 14.44777 3511 ft 154 kts 302°
2026-04-09 16:56 40.46462 14.43596 3514 ft 154 kts 302°
2026-04-09 16:56 40.47045 14.42416 3515 ft 154 kts 302°
2026-04-09 16:56 40.47629 14.41236 3515 ft 154 kts 302°
2026-04-09 16:57 40.48212 14.40050 3514 ft 154 kts 302°
2026-04-09 16:57 40.48795 14.38868 3513 ft 154 kts 302°
2026-04-09 16:57 40.49371 14.37702 3511 ft 154 kts 302°
2026-04-09 16:57 40.49953 14.36517 3511 ft 154 kts 302°
2026-04-09 16:58 40.50531 14.35331 3511 ft 154 kts 302°
2026-04-09 16:58 40.51106 14.34141 3512 ft 154 kts 302°
2026-04-09 16:58 40.51681 14.32953 3511 ft 154 kts 302°
2026-04-09 16:58 40.52256 14.31768 3511 ft 154 kts 302°
2026-04-09 16:59 40.53414 14.29399 3514 ft 154 kts 302°
2026-04-09 16:59 40.53994 14.28215 3515 ft 154 kts 302°
2026-04-09 16:59 40.54577 14.27030 3511 ft 155 kts 302°
2026-04-09 17:00 40.55160 14.25845 3512 ft 153 kts 302°
2026-04-09 17:00 40.55729 14.24661 3514 ft 154 kts 301°
2026-04-09 17:00 40.56287 14.23453 3514 ft 154 kts 301°
2026-04-09 17:00 40.56856 14.22257 3515 ft 154 kts 302°
2026-04-09 17:01 40.57428 14.21070 3509 ft 152 kts 302°
2026-04-09 17:01 40.57989 14.19900 3506 ft 151 kts 301°
2026-04-09 17:01 40.58537 14.18725 3506 ft 151 kts 301°
2026-04-09 17:01 40.59077 14.17541 3505 ft 151 kts 300°
2026-04-09 17:02 40.59612 14.16354 3507 ft 151 kts 300°
2026-04-09 17:02 40.60149 14.15170 3506 ft 151 kts 300°
2026-04-09 17:02 40.60692 14.13989 3507 ft 151 kts 301°
2026-04-09 17:02 40.61237 14.12811 3507 ft 151 kts 301°
2026-04-09 17:03 40.61783 14.11628 3510 ft 151 kts 301°
2026-04-09 17:03 40.62331 14.10448 3508 ft 151 kts 301°
2026-04-09 17:03 40.62881 14.09270 3508 ft 151 kts 301°
2026-04-09 17:03 40.63430 14.08095 3509 ft 151 kts 301°
2026-04-09 17:04 40.63981 14.06915 3510 ft 151 kts 301°
2026-04-09 17:04 40.64523 14.05751 3509 ft 151 kts 301°
2026-04-09 17:04 40.65069 14.04569 3507 ft 150 kts 301°
2026-04-09 17:04 40.65605 14.03400 3508 ft 149 kts 301°
2026-04-09 17:05 40.66138 14.02238 3505 ft 148 kts 301°
2026-04-09 17:05 40.66673 14.01084 3506 ft 147 kts 301°
2026-04-09 17:05 40.67208 13.99934 3507 ft 147 kts 301°
2026-04-09 17:05 40.67741 13.98786 3507 ft 147 kts 301°
2026-04-09 17:06 40.68274 13.97638 3506 ft 147 kts 301°
2026-04-09 17:06 40.68806 13.96489 3507 ft 147 kts 301°
2026-04-09 17:06 40.69339 13.95344 3512 ft 147 kts 301°
2026-04-09 17:06 40.69867 13.94202 3586 ft 140 kts 300°
2026-04-09 17:07 40.70370 13.93090 3584 ft 144 kts 300°
2026-04-09 17:07 40.70883 13.91959 3631 ft 142 kts 301°
2026-04-09 17:07 40.71409 13.90852 3627 ft 144 kts 302°
2026-04-09 17:07 40.71951 13.89728 3623 ft 145 kts 301°
2026-04-09 17:08 40.72472 13.88595 3609 ft 145 kts 300°
2026-04-09 17:08 40.72984 13.87416 3613 ft 149 kts 299°
2026-04-09 17:08 40.73507 13.86232 3599 ft 150 kts 300°
2026-04-09 17:08 40.74049 13.85069 3601 ft 147 kts 303°
2026-04-09 17:09 40.74686 13.84024 3603 ft 146 kts 311°
2026-04-09 17:09 40.75433 13.83103 3549 ft 150 kts 318°
2026-04-09 17:09 40.76258 13.82287 3548 ft 149 kts 322°
2026-04-09 17:09 40.77121 13.81529 3542 ft 148 kts 324°
2026-04-09 17:10 40.77974 13.80790 3534 ft 148 kts 323°
2026-04-09 17:10 40.78814 13.80006 3532 ft 148 kts 320°
2026-04-09 17:10 40.79618 13.79164 3530 ft 147 kts 317°
2026-04-09 17:10 40.80384 13.78265 3528 ft 147 kts 315°
2026-04-09 17:11 40.81113 13.77326 3528 ft 146 kts 313°
2026-04-09 17:11 40.81821 13.76365 3528 ft 146 kts 312°
2026-04-09 17:11 40.82527 13.75403 3527 ft 146 kts 313°
2026-04-09 17:11 40.83245 13.74454 3528 ft 146 kts 314°
2026-04-09 17:12 40.83979 13.73527 3527 ft 146 kts 315°
2026-04-09 17:12 40.84730 13.72625 3525 ft 146 kts 316°
2026-04-09 17:12 40.85493 13.71736 3527 ft 146 kts 316°
2026-04-09 17:12 40.86260 13.70853 3531 ft 146 kts 316°
2026-04-09 17:13 40.87028 13.69969 3527 ft 146 kts 316°
2026-04-09 17:13 40.87788 13.69084 3524 ft 146 kts 316°
2026-04-09 17:13 40.88546 13.68188 3525 ft 146 kts 316°
2026-04-09 17:13 40.89298 13.67285 3526 ft 146 kts 315°
2026-04-09 17:14 40.90046 13.66375 3525 ft 146 kts 315°
2026-04-09 17:14 40.90792 13.65459 3525 ft 147 kts 315°
2026-04-09 17:14 40.91538 13.64542 3526 ft 147 kts 315°
2026-04-09 17:14 40.92287 13.63628 3528 ft 146 kts 315°
2026-04-09 17:15 40.93037 13.62719 3528 ft 146 kts 315°
2026-04-09 17:15 40.93791 13.61815 3528 ft 146 kts 316°
2026-04-09 17:15 40.94545 13.60917 3528 ft 146 kts 316°
2026-04-09 17:15 40.95297 13.60018 3528 ft 146 kts 315°
2026-04-09 17:16 40.96050 13.59115 3526 ft 146 kts 315°
2026-04-09 17:16 40.96799 13.58213 3523 ft 146 kts 315°
2026-04-09 17:16 40.97553 13.57295 3525 ft 149 kts 315°
2026-04-09 17:16 40.98315 13.56364 3523 ft 149 kts 315°
2026-04-09 17:17 40.99079 13.55436 3522 ft 149 kts 315°
2026-04-09 17:17 40.99845 13.54510 3521 ft 149 kts 316°
2026-04-09 17:17 41.00610 13.53587 3528 ft 149 kts 316°
2026-04-09 17:17 41.01377 13.52667 3522 ft 149 kts 316°
2026-04-09 17:18 41.02142 13.51748 3520 ft 148 kts 316°
2026-04-09 17:18 41.02905 13.50826 3521 ft 148 kts 315°
2026-04-09 17:18 41.03666 13.49903 3522 ft 148 kts 315°
2026-04-09 17:18 41.04417 13.48984 3517 ft 145 kts 315°
2026-04-09 17:19 41.05151 13.48077 3520 ft 144 kts 316°
2026-04-09 17:19 41.05885 13.47191 3520 ft 145 kts 316°
2026-04-09 17:19 41.06633 13.46296 3520 ft 145 kts 316°
2026-04-09 17:19 41.07382 13.45396 3520 ft 145 kts 316°
2026-04-09 17:20 41.08129 13.44492 3523 ft 146 kts 316°
2026-04-09 17:20 41.08877 13.43583 3522 ft 146 kts 316°
2026-04-09 17:20 41.09624 13.42674 3522 ft 146 kts 316°
2026-04-09 17:20 41.10372 13.41765 3529 ft 146 kts 316°
2026-04-09 17:21 41.11121 13.40857 3524 ft 146 kts 316°
2026-04-09 17:21 41.11869 13.39950 3525 ft 146 kts 316°
2026-04-09 17:21 41.12617 13.39043 3525 ft 146 kts 316°
2026-04-09 17:21 41.13365 13.38135 3525 ft 146 kts 316°
2026-04-09 17:22 41.14112 13.37226 3523 ft 146 kts 316°
2026-04-09 17:22 41.14861 13.36313 3521 ft 146 kts 316°
2026-04-09 17:22 41.15608 13.35403 3520 ft 146 kts 316°
2026-04-09 17:22 41.16354 13.34495 3520 ft 146 kts 316°
2026-04-09 17:23 41.17100 13.33586 3521 ft 146 kts 316°
2026-04-09 17:23 41.17847 13.32676 3520 ft 146 kts 316°
2026-04-09 17:23 41.18594 13.31766 3524 ft 146 kts 316°
2026-04-09 17:23 41.19341 13.30856 3519 ft 146 kts 316°
2026-04-09 17:24 41.20088 13.29946 3521 ft 146 kts 316°
2026-04-09 17:24 41.20837 13.29033 3522 ft 146 kts 316°
2026-04-09 17:24 41.21582 13.28124 3522 ft 144 kts 316°
2026-04-09 17:24 41.22264 13.27254 3372 ft 124 kts 314°
2026-04-09 17:25 41.22877 13.26471 2802 ft 125 kts 316°
2026-04-09 17:25 41.23549 13.25666 2164 ft 133 kts 316°
2026-04-09 17:25 41.24232 13.24858 1566 ft 130 kts 316°
2026-04-09 17:25 41.24928 13.24045 949 ft 141 kts 316°
2026-04-09 17:26 41.25697 13.23164 1037 ft 146 kts 316°
2026-04-09 17:26 41.26482 13.22255 1022 ft 152 kts 315°
2026-04-09 17:26 41.27256 13.21274 1022 ft 155 kts 314°
2026-04-09 17:26 41.27970 13.20210 1018 ft 153 kts 308°
2026-04-09 17:27 41.28633 13.19120 1016 ft 154 kts 307°
2026-04-09 17:27 41.29318 13.18003 1018 ft 155 kts 308°
2026-04-09 17:27 41.29991 13.16902 1018 ft 156 kts 307°
2026-04-09 17:27 41.30666 13.15777 1017 ft 155 kts 307°
2026-04-09 17:28 41.31342 13.14640 1017 ft 155 kts 307°
2026-04-09 17:28 41.31996 13.13536 1018 ft 153 kts 307°
2026-04-09 17:28 41.32651 13.12431 1018 ft 151 kts 307°
2026-04-09 17:28 41.33305 13.11337 1018 ft 151 kts 307°
2026-04-09 17:29 41.33951 13.10224 1015 ft 152 kts 307°
2026-04-09 17:29 41.34604 13.09118 1014 ft 151 kts 308°
2026-04-09 17:29 41.35255 13.08024 1012 ft 151 kts 308°
2026-04-09 17:29 41.35898 13.06921 1012 ft 150 kts 307°
2026-04-09 17:30 41.36542 13.05833 1015 ft 149 kts 307°
2026-04-09 17:30 41.37191 13.04745 1013 ft 151 kts 307°
2026-04-09 17:30 41.37832 13.03654 1015 ft 149 kts 307°
2026-04-09 17:30 41.38483 13.02558 1015 ft 152 kts 307°
2026-04-09 17:31 41.39150 13.01456 1015 ft 152 kts 307°
2026-04-09 17:31 41.39799 13.00350 1016 ft 150 kts 307°
2026-04-09 17:31 41.40416 12.99289 992 ft 141 kts 305°
2026-04-09 17:31 41.40677 12.98107 998 ft 129 kts 264°
2026-04-09 17:32 41.40335 12.97101 1009 ft 114 kts 237°
2026-04-09 17:32 41.39893 12.96280 1000 ft 104 kts 236°
2026-04-09 17:32 41.39461 12.95558 993 ft 99 kts 234°
2026-04-09 17:32 41.38980 12.95122 829 ft 78 kts 182°
2026-04-09 17:33 41.38478 12.95390 591 ft 78 kts 147°
2026-04-09 17:33 41.38082 12.95880 550 ft 79 kts 127°
2026-04-09 17:33 41.37691 12.96395 580 ft 81 kts 145°
2026-04-09 17:33 41.37223 12.96822 602 ft 82 kts 146°
2026-04-09 17:34 41.36772 12.97227 584 ft 79 kts 148°
2026-04-09 17:34 41.36294 12.97659 659 ft 81 kts 148°
2026-04-09 17:34 41.35834 12.98097 643 ft 83 kts 139°
2026-04-09 17:34 41.35407 12.98627 592 ft 83 kts 139°
2026-04-09 17:35 41.35011 12.99198 580 ft 84 kts 127°
2026-04-09 17:35 41.34767 12.99919 588 ft 83 kts 106°
2026-04-09 17:35 41.34530 13.00531 483 ft 73 kts 138°
2026-04-09 17:35 41.34186 13.01017 408 ft 74 kts 125°
2026-04-09 17:36 41.33884 13.01549 267 ft 71 kts 141°
2026-04-09 17:36 41.33510 13.01968 80 ft 67 kts 144°
2026-04-09 17:36 41.33190 13.02332 170 ft 64 kts 134°
2026-04-09 17:36 41.32852 13.02867 442 ft 84 kts 139°
2026-04-09 17:37 41.32312 13.03062 802 ft 88 kts 203°
2026-04-09 17:37 41.31842 13.02453 970 ft 106 kts 238°
2026-04-09 17:37 41.31721 13.01603 1193 ft 82 kts 297°
2026-04-09 17:37 41.32079 13.01159 1053 ft 70 kts 338°
2026-04-09 17:38 41.32560 13.00916 752 ft 76 kts 334°
2026-04-09 17:38 41.33044 13.00633 549 ft 79 kts 332°
2026-04-09 17:38 41.33551 13.00328 397 ft 77 kts 330°
2026-04-09 17:38 41.34018 13.00053 432 ft 70 kts 345°
2026-04-09 17:39 41.34303 13.00228 477 ft 75 kts 46°
2026-04-09 17:39 41.34464 13.00886 453 ft 77 kts 108°
2026-04-09 17:39 41.34076 13.01370 345 ft 79 kts 142°
2026-04-09 17:39 41.33648 13.01819 106 ft 77 kts 147°
2026-04-09 17:40 41.33314 13.02183 80 ft 36 kts 141°
2026-04-09 17:40 41.33286 13.02244 80 ft 5 kts 69°
2026-04-09 17:40 41.33230 13.02297 79 ft 16 kts 139°
2026-04-09 17:40 41.33218 13.02370 75 ft 9 kts 26°
2026-04-09 17:41 41.33214 13.02382 70 ft 0 kts 242°